createdAt,value
2023-04-18T00:02:38.802Z,101643.34
2023-04-18T00:05:42.300Z,101645.22
2023-04-18T00:08:44.858Z,101642.50
2023-04-18T00:11:47.614Z,101648.69
2023-04-18T00:14:52.934Z,101648.72
2023-04-18T00:17:57.102Z,101652.16
2023-04-18T00:20:59.682Z,101656.53
2023-04-18T00:24:02.463Z,101653.88
2023-04-18T00:27:04.916Z,101652.94
2023-04-18T00:30:09.069Z,101657.28
2023-04-18T00:33:13.120Z,101657.25
2023-04-18T00:36:15.937Z,101658.94
2023-04-18T00:39:18.444Z,101655.41
2023-04-18T00:42:22.280Z,101653.53
2023-04-18T00:45:24.705Z,101654.41
2023-04-18T00:48:27.922Z,101653.41
2023-04-18T00:51:30.794Z,101653.47
2023-04-18T00:54:33.622Z,101651.63
2023-04-18T00:57:36.419Z,101641.72
2023-04-18T01:00:39.197Z,101650.63
2023-04-18T01:03:41.787Z,101644.34
2023-04-18T01:06:45.792Z,101646.13
2023-04-18T01:09:48.422Z,101643.34
2023-04-18T01:12:51.159Z,101645.13
2023-04-18T01:15:55.277Z,101647.78
2023-04-18T01:18:58.314Z,101640.63
2023-04-18T01:22:00.915Z,101645.88
2023-04-18T01:25:08.426Z,101652.09
2023-04-18T01:28:12.438Z,101648.53
2023-04-18T01:31:15.221Z,101644.03
2023-04-18T01:34:20.988Z,101645.06
2023-04-18T01:37:23.990Z,101651.31
2023-04-18T01:40:26.597Z,101644.25
2023-04-18T01:43:29.726Z,101652.19
2023-04-18T01:46:32.238Z,101654.03
2023-04-18T01:49:37.155Z,101654.13
2023-04-18T01:52:39.454Z,101650.56
2023-04-18T01:55:42.175Z,101651.47
2023-04-18T01:58:44.517Z,101648.72
2023-04-18T02:01:48.521Z,101648.81
2023-04-18T02:04:51.054Z,101646.19
2023-04-18T02:07:54.049Z,101637.28
2023-04-18T02:10:56.335Z,101636.28
2023-04-18T02:13:59.906Z,101635.25
2023-04-18T02:17:02.381Z,101636.25
2023-04-18T02:20:05.699Z,101627.16
2023-04-18T02:23:10.163Z,101624.44
2023-04-18T02:26:12.987Z,101619.13
2023-04-18T02:29:15.488Z,101622.66
2023-04-18T02:32:18.368Z,101629.75
2023-04-18T02:35:21.770Z,101629.69
2023-04-18T02:38:24.575Z,101636.84
2023-04-18T02:41:27.837Z,101633.28
2023-04-18T02:44:30.573Z,101629.69
2023-04-18T02:47:37.719Z,101627.84
2023-04-18T02:50:52.860Z,101632.34
2023-04-18T02:53:55.915Z,101621.72
2023-04-18T02:57:01.500Z,101636.81
2023-04-18T03:00:17.265Z,101627.84
2023-04-18T03:03:38.571Z,101632.34
2023-04-18T03:07:01.157Z,101641.19
2023-04-18T03:10:07.852Z,101631.19
2023-04-18T03:13:12.622Z,101636.50
2023-04-18T03:16:16.075Z,101632.16
2023-04-18T03:19:19.102Z,101636.72
2023-04-18T03:22:21.977Z,101629.63
2023-04-18T03:25:31.147Z,101638.59
2023-04-18T03:28:34.807Z,101639.47
2023-04-18T03:31:37.266Z,101637.78
2023-04-18T03:34:40.063Z,101637.78
2023-04-18T03:37:44.261Z,101641.34
2023-04-18T03:40:52.472Z,101645.75
2023-04-18T03:44:01.034Z,101644.88
2023-04-18T03:47:04.191Z,101644.97
2023-04-18T03:50:09.726Z,101651.06
2023-04-18T03:53:12.759Z,101649.22
2023-04-18T03:56:15.121Z,101647.41
2023-04-18T03:59:30.231Z,101658.13
2023-04-18T04:02:32.858Z,101656.38
2023-04-18T04:05:36.043Z,101644.88
2023-04-18T04:08:38.416Z,101655.47
2023-04-18T04:11:41.566Z,101651.06
2023-04-18T04:14:46.812Z,101656.63
2023-04-18T04:17:51.004Z,101660.16
2023-04-18T04:20:54.001Z,101655.75
2023-04-18T04:24:13.908Z,101664.56
2023-04-18T04:27:20.777Z,101667.13
2023-04-18T04:30:23.697Z,101660.94
2023-04-18T04:33:28.837Z,101662.78
2023-04-18T04:36:35.924Z,101669.03
2023-04-18T04:39:41.359Z,101669.91
2023-04-18T04:43:16.652Z,101675.28
2023-04-18T04:46:23.349Z,101675.28
2023-04-18T04:49:26.240Z,101666.50
2023-04-18T04:52:28.513Z,101671.94
2023-04-18T04:55:32.928Z,101677.31
2023-04-18T04:58:36.907Z,101677.44
2023-04-18T05:02:01.840Z,101672.06
2023-04-18T05:05:23.212Z,101675.72
2023-04-18T05:08:26.455Z,101678.38
2023-04-18T05:11:28.817Z,101672.19
2023-04-18T05:14:31.642Z,101679.19
2023-04-18T05:17:33.990Z,101681.03
2023-04-18T05:20:36.903Z,101683.75
2023-04-18T05:23:40.373Z,101686.34
2023-04-18T05:26:43.688Z,101681.94
2023-04-18T05:29:47.770Z,101683.75
2023-04-18T05:32:50.607Z,101687.47
2023-04-18T05:35:53.120Z,101692.84
2023-04-18T05:38:55.771Z,101691.09
2023-04-18T05:41:58.617Z,101689.31
2023-04-18T05:45:01.375Z,101692.06
2023-04-18T05:48:04.095Z,101686.66
2023-04-18T05:51:06.741Z,101683.94
2023-04-18T05:54:09.107Z,101687.59
2023-04-18T05:57:12.281Z,101692.03
2023-04-18T06:00:15.360Z,101689.38
2023-04-18T06:03:18.317Z,101690.31
2023-04-18T06:06:21.092Z,101684.28
2023-04-18T06:09:24.117Z,101686.16
2023-04-18T06:12:26.537Z,101693.41
2023-04-18T06:15:29.392Z,101681.94
2023-04-18T06:18:31.752Z,101683.78
2023-04-18T06:21:34.668Z,101676.75
2023-04-18T06:24:37.683Z,101686.50
2023-04-18T06:27:40.394Z,101688.50
2023-04-18T06:30:42.920Z,101686.00
2023-04-18T06:33:45.674Z,101679.91
2023-04-18T06:36:48.142Z,101676.41
2023-04-18T06:39:50.912Z,101680.88
2023-04-18T06:42:53.403Z,101691.47
2023-04-18T06:45:56.892Z,101683.44
2023-04-18T06:48:59.474Z,101688.03
2023-04-18T06:52:02.256Z,101695.91
2023-04-18T06:55:04.940Z,101686.22
2023-04-18T06:58:08.734Z,101692.47
2023-04-18T07:01:11.054Z,101689.88
2023-04-18T07:04:14.346Z,101691.84
2023-04-18T07:07:17.068Z,101695.34
2023-04-18T07:10:19.874Z,101692.81
2023-04-18T07:13:22.243Z,101695.47
2023-04-18T07:16:25.066Z,101696.34
2023-04-18T07:19:27.419Z,101696.34
2023-04-18T07:22:30.118Z,101696.50
2023-04-18T07:25:32.553Z,101698.44
2023-04-18T07:28:35.494Z,101695.09
2023-04-18T07:31:37.870Z,101685.78
2023-04-18T07:34:40.570Z,101689.69
2023-04-18T07:37:42.875Z,101684.44
2023-04-18T07:40:46.016Z,101687.09
2023-04-18T07:43:48.316Z,101681.78
2023-04-18T07:46:52.102Z,101681.00
2023-04-18T07:49:54.931Z,101681.03
2023-04-18T07:52:57.602Z,101683.72
2023-04-18T07:56:00.090Z,101681.88
2023-04-18T07:59:02.903Z,101680.81
2023-04-18T08:02:05.332Z,101685.31
2023-04-18T08:05:09.096Z,101672.84
2023-04-18T08:08:12.408Z,101685.28
2023-04-18T08:11:15.225Z,101679.03
2023-04-18T08:14:17.775Z,101679.78
2023-04-18T08:17:20.753Z,101675.00
2023-04-18T08:20:23.410Z,101673.59
2023-04-18T08:23:26.292Z,101664.31
2023-04-18T08:26:28.676Z,101669.91
2023-04-18T08:29:33.255Z,101672.47
2023-04-18T08:32:36.809Z,101678.84
2023-04-18T08:35:39.438Z,101662.59
2023-04-18T08:38:41.759Z,101671.88
2023-04-18T08:41:46.411Z,101662.91
2023-04-18T08:44:48.962Z,101669.81
2023-04-18T08:47:52.695Z,101659.47
2023-04-18T08:50:59.219Z,101670.91
2023-04-18T08:54:04.734Z,101672.06
2023-04-18T08:57:09.001Z,101662.34
2023-04-18T09:00:12.247Z,101654.25
2023-04-18T09:03:15.792Z,101657.63
2023-04-18T09:06:20.629Z,101661.53
2023-04-18T09:09:27.685Z,101655.16
2023-04-18T09:12:30.591Z,101656.00
2023-04-18T09:15:32.987Z,101647.81
2023-04-18T09:18:35.693Z,101652.72
2023-04-18T09:21:44.652Z,101654.06
2023-04-18T09:24:57.485Z,101665.63
2023-04-18T09:28:02.069Z,101661.09
2023-04-18T09:31:12.093Z,101648.22
2023-04-18T09:34:25.146Z,101658.44
2023-04-18T09:37:29.275Z,101665.59
2023-04-18T09:40:32.531Z,101658.72
2023-04-18T09:43:35.296Z,101666.13
2023-04-18T09:46:37.786Z,101670.75
2023-04-18T09:49:40.800Z,101670.09
2023-04-18T09:52:44.806Z,101663.84
2023-04-18T09:55:53.984Z,101666.56
2023-04-18T09:59:06.041Z,101671.16
2023-04-18T10:02:16.668Z,101665.81
2023-04-18T10:05:21.519Z,101669.34
2023-04-18T10:08:24.403Z,101658.59
2023-04-18T10:11:27.221Z,101659.38
2023-04-18T10:14:30.710Z,101650.28
2023-04-18T10:17:56.227Z,101647.31
2023-04-18T10:21:04.419Z,101642.84
2023-04-18T10:24:07.645Z,101643.69
2023-04-18T10:27:10.295Z,101643.44
2023-04-18T10:30:12.970Z,101626.59
2023-04-18T10:33:33.873Z,101638.38
2023-04-18T10:36:36.614Z,101637.94
2023-04-18T10:40:05.868Z,101624.63
2023-04-18T10:43:08.266Z,101627.69
2023-04-18T10:46:20.467Z,101616.03
2023-04-18T10:49:34.009Z,101605.63
2023-04-18T10:52:36.806Z,101604.91
2023-04-18T10:55:42.330Z,101610.38
2023-04-18T10:58:51.475Z,101598.47
2023-04-18T11:01:58.111Z,101600.94
2023-04-18T11:05:07.294Z,101603.63
2023-04-18T11:08:23.842Z,101599.06
2023-04-18T11:11:26.594Z,101602.53
2023-04-18T11:14:42.913Z,101610.91
2023-04-18T11:17:45.729Z,101610.03
2023-04-18T11:20:50.771Z,101610.06
2023-04-18T11:23:55.115Z,101598.00
2023-04-18T11:26:58.028Z,101598.78
2023-04-18T11:30:01.078Z,101599.00
2023-04-18T11:33:11.517Z,101598.88
2023-04-18T11:36:14.791Z,101598.09
2023-04-18T11:39:17.688Z,101599.00
2023-04-18T11:42:20.871Z,101592.78
2023-04-18T11:45:23.280Z,101592.72
2023-04-18T11:48:46.895Z,101596.28
2023-04-18T11:51:49.267Z,101596.56
2023-04-18T11:54:52.203Z,101594.91
2023-04-18T11:57:59.285Z,101587.75
2023-04-18T12:01:22.498Z,101597.69
2023-04-18T12:04:24.987Z,101585.16
2023-04-18T12:07:42.357Z,101587.00
2023-04-18T12:10:50.731Z,101567.97
2023-04-18T12:13:56.563Z,101573.25
2023-04-18T12:16:58.937Z,101569.53
2023-04-18T12:20:05.523Z,101562.81
2023-04-18T12:23:08.495Z,101563.28
2023-04-18T12:26:18.533Z,101555.19
2023-04-18T12:29:21.118Z,101560.38
2023-04-18T12:32:23.869Z,101554.16
2023-04-18T12:35:26.840Z,101552.25
2023-04-18T12:38:29.982Z,101546.13
2023-04-18T12:41:32.508Z,101545.25
2023-04-18T12:44:35.218Z,101538.81
2023-04-18T12:47:39.068Z,101529.63
2023-04-18T12:50:41.973Z,101537.09
2023-04-18T12:54:09.202Z,101537.78
2023-04-18T12:57:11.953Z,101531.13
2023-04-18T13:00:15.029Z,101532.13
2023-04-18T13:03:18.011Z,101523.09
2023-04-18T13:06:20.578Z,101524.22
2023-04-18T13:09:23.300Z,101511.50
2023-04-18T13:12:25.696Z,101505.44
2023-04-18T13:15:28.486Z,101515.78
2023-04-18T13:18:31.132Z,101510.41
2023-04-18T13:21:33.867Z,101509.41
2023-04-18T13:24:37.359Z,101502.69
2023-04-18T13:27:42.067Z,101503.53
2023-04-18T13:30:44.648Z,101505.00
2023-04-18T13:33:47.529Z,101503.28
2023-04-18T13:36:50.104Z,101498.75
2023-04-18T13:39:53.801Z,101488.47
2023-04-18T13:42:56.399Z,101492.81
2023-04-18T13:45:59.166Z,101483.25
2023-04-18T13:49:01.647Z,101477.75
2023-04-18T13:52:04.819Z,101475.88
2023-04-18T13:55:07.871Z,101475.88
2023-04-18T13:58:10.938Z,101474.94
2023-04-18T14:01:14.361Z,101473.00
2023-04-18T14:04:17.457Z,101462.94
2023-04-18T14:07:19.917Z,101465.13
2023-04-18T14:10:22.977Z,101470.44
2023-04-18T14:13:25.912Z,101475.97
2023-04-18T14:16:32.300Z,101464.56
2023-04-18T14:19:35.052Z,101475.53
2023-04-18T14:22:37.846Z,101475.31
2023-04-18T14:25:40.232Z,101475.56
2023-04-18T14:28:42.817Z,101478.59
2023-04-18T14:31:45.289Z,101473.81
2023-04-18T14:34:48.096Z,101462.94
2023-04-18T14:37:50.458Z,101460.19
2023-04-18T14:40:53.176Z,101462.06
2023-04-18T14:43:55.762Z,101468.91
2023-04-18T14:46:58.512Z,101464.19
2023-04-18T14:50:00.860Z,101457.91
2023-04-18T14:53:04.190Z,101451.63
2023-04-18T14:56:07.126Z,101451.28
2023-04-18T14:59:10.237Z,101458.69
2023-04-18T15:02:12.686Z,101450.09
2023-04-18T15:05:15.794Z,101453.59
2023-04-18T15:08:18.446Z,101456.41
2023-04-18T15:11:21.234Z,101443.88
2023-04-18T15:14:23.732Z,101449.16
2023-04-18T15:17:26.759Z,101445.66
2023-04-18T15:20:29.822Z,101450.97
2023-04-18T15:23:32.702Z,101441.19
2023-04-18T15:26:35.159Z,101444.69
2023-04-18T15:29:38.530Z,101442.22
2023-04-18T15:32:42.368Z,101445.97
2023-04-18T15:35:45.954Z,101439.66
2023-04-18T15:38:48.335Z,101438.06
2023-04-18T15:41:54.872Z,101428.22
2023-04-18T15:44:57.215Z,101430.06
2023-04-18T15:47:59.965Z,101433.66
2023-04-18T15:51:03.223Z,101426.50
2023-04-18T15:54:06.807Z,101420.28
2023-04-18T15:57:10.345Z,101428.44
2023-04-18T16:00:16.433Z,101428.38
2023-04-18T16:03:19.372Z,101425.72
2023-04-18T16:06:23.722Z,101426.66
2023-04-18T16:09:26.710Z,101425.78
2023-04-18T16:12:29.886Z,101426.59
2023-04-18T16:15:32.538Z,101432.03
2023-04-18T16:18:35.305Z,101425.81
2023-04-18T16:21:37.677Z,101416.09
2023-04-18T16:24:42.177Z,101412.59
2023-04-18T16:27:45.066Z,101417.03
2023-04-18T16:30:48.210Z,101415.31
2023-04-18T16:33:53.124Z,101424.41
2023-04-18T16:36:56.373Z,101420.31
2023-04-18T16:40:00.353Z,101415.13
2023-04-18T16:43:05.972Z,101415.34
2023-04-18T16:46:09.026Z,101418.28
2023-04-18T16:49:12.220Z,101421.00
2023-04-18T16:52:15.684Z,101427.25
2023-04-18T16:55:19.282Z,101420.06
2023-04-18T16:58:23.527Z,101414.78
2023-04-18T17:01:26.394Z,101413.97
2023-04-18T17:04:29.881Z,101416.56
2023-04-18T17:07:33.971Z,101408.75
2023-04-18T17:10:36.649Z,101418.53
2023-04-18T17:13:40.503Z,101420.41
2023-04-18T17:16:43.943Z,101418.75
2023-04-18T17:19:47.974Z,101423.31
2023-04-18T17:22:52.122Z,101425.25
2023-04-18T17:25:55.327Z,101422.81
2023-04-18T17:28:58.213Z,101426.53
2023-04-18T17:32:01.682Z,101429.28
2023-04-18T17:35:06.714Z,101430.19
2023-04-18T17:38:11.680Z,101437.38
2023-04-18T17:41:19.085Z,101431.19
2023-04-18T17:44:23.083Z,101431.28
2023-04-18T17:47:25.992Z,101429.50
2023-04-18T17:50:31.022Z,101427.78
2023-04-18T17:53:33.907Z,101426.00
2023-04-18T17:56:37.820Z,101429.66
2023-04-18T17:59:41.636Z,101422.50
2023-04-18T18:02:45.137Z,101428.81
2023-04-18T18:05:50.537Z,101432.38
2023-04-18T18:08:54.571Z,101429.75
2023-04-18T18:11:59.451Z,101430.63
2023-04-18T18:15:03.695Z,101426.28
2023-04-18T18:18:07.561Z,101420.06
2023-04-18T18:21:12.009Z,101427.22
2023-04-18T18:24:15.745Z,101430.84
2023-04-18T18:27:23.465Z,101418.38
2023-04-18T18:30:28.679Z,101422.91
2023-04-18T18:33:32.423Z,101409.56
2023-04-18T18:36:37.882Z,101416.75
2023-04-18T18:39:44.945Z,101414.13
2023-04-18T18:42:52.261Z,101415.06
2023-04-18T18:46:03.964Z,101416.00
2023-04-18T18:49:09.701Z,101414.25
2023-04-18T18:52:14.498Z,101406.28
2023-04-18T18:55:18.523Z,101409.00
2023-04-18T18:58:30.583Z,101403.66
2023-04-18T19:01:36.603Z,101409.03
2023-04-18T19:04:41.758Z,101410.84
2023-04-18T19:07:45.900Z,101405.53
2023-04-18T19:10:51.075Z,101406.47
2023-04-18T19:13:54.775Z,101410.97
2023-04-18T19:16:59.326Z,101412.81
2023-04-18T19:20:03.422Z,101395.03
2023-04-18T19:23:10.069Z,101403.97
2023-04-18T19:26:14.711Z,101403.97
2023-04-18T19:29:18.914Z,101395.91
2023-04-18T19:32:23.352Z,101393.28
2023-04-18T19:35:28.859Z,101405.75
2023-04-18T19:38:33.376Z,101410.19
2023-04-18T19:41:41.418Z,101405.75
2023-04-18T19:44:45.825Z,101395.09
2023-04-18T19:47:51.511Z,101400.44
2023-04-18T19:50:58.279Z,101395.09
2023-04-18T19:54:02.441Z,101398.66
2023-04-18T19:57:07.750Z,101398.66
2023-04-18T20:00:13.496Z,101402.22
2023-04-18T20:03:20.376Z,101382.66
2023-04-18T20:06:27.466Z,101394.22
2023-04-18T20:09:31.444Z,101385.28
2023-04-18T20:12:36.054Z,101392.38
2023-04-18T20:15:40.543Z,101381.72
2023-04-18T20:23:12.601Z,101377.28
2023-04-18T20:26:24.373Z,101377.28
2023-04-18T20:29:29.665Z,101382.63
2023-04-18T20:32:34.276Z,101372.81
2023-04-18T20:35:41.631Z,101379.94
2023-04-18T20:38:45.308Z,101372.78
2023-04-18T20:41:55.038Z,101360.38
2023-04-18T20:44:59.459Z,101364.81
2023-04-18T20:48:08.266Z,101363.03
2023-04-18T20:51:11.097Z,101362.13
2023-04-18T20:54:16.242Z,101359.47
2023-04-18T20:57:21.537Z,101352.34
2023-04-18T21:00:24.840Z,101349.69
2023-04-18T21:03:27.658Z,101349.69
2023-04-18T21:06:31.194Z,101347.88
2023-04-18T21:09:36.844Z,101344.31
2023-04-18T21:12:39.581Z,101347.00
2023-04-18T21:15:45.111Z,101343.44
2023-04-18T21:18:47.836Z,101342.53
2023-04-18T21:21:50.988Z,101337.16
2023-04-18T21:24:53.756Z,101334.44
2023-04-18T21:27:56.397Z,101336.22
2023-04-18T21:30:59.157Z,101330.88
2023-04-18T21:34:05.672Z,101322.84
2023-04-18T21:37:08.381Z,101323.72
2023-04-18T21:40:11.117Z,101327.31
2023-04-18T21:43:13.910Z,101322.00
2023-04-18T21:46:16.830Z,101316.66
2023-04-18T21:49:19.627Z,101323.75
2023-04-18T21:52:22.016Z,101315.72
2023-04-18T21:55:24.819Z,101315.72
2023-04-18T21:58:28.031Z,101305.09
2023-04-18T22:01:30.890Z,101304.13
2023-04-18T22:04:34.070Z,101307.69
2023-04-18T22:07:46.593Z,101293.44
2023-04-18T22:11:00.488Z,101294.31
2023-04-18T22:14:03.322Z,101304.09
2023-04-18T22:17:05.757Z,101296.06
2023-04-18T22:20:09.013Z,101297.84
2023-04-18T22:23:11.827Z,101296.94
2023-04-18T22:26:14.564Z,101290.69
2023-04-18T22:29:17.008Z,101284.53
2023-04-18T22:32:19.811Z,101287.22
2023-04-18T22:35:22.498Z,101285.44
2023-04-18T22:38:25.509Z,101279.16
2023-04-18T22:41:27.963Z,101274.66
2023-04-18T22:44:30.746Z,101278.19
2023-04-18T22:47:33.673Z,101275.50
2023-04-18T22:50:38.032Z,101271.06
2023-04-18T22:53:40.623Z,101284.28
2023-04-18T22:56:43.307Z,101276.31
2023-04-18T22:59:46.100Z,101266.53
2023-04-18T23:02:48.936Z,101270.94
2023-04-18T23:05:51.475Z,101262.06
2023-04-18T23:08:54.438Z,101255.78
2023-04-18T23:11:56.873Z,101254.84
2023-04-18T23:14:59.650Z,101257.47
2023-04-18T23:18:02.169Z,101255.63
2023-04-18T23:21:05.106Z,101250.38
2023-04-18T23:24:07.876Z,101248.56
2023-04-18T23:27:10.944Z,101248.44
2023-04-18T23:30:13.515Z,101243.91
2023-04-18T23:33:19.305Z,101238.63
2023-04-18T23:36:21.704Z,101223.53
2023-04-18T23:39:26.342Z,101220.78
2023-04-18T23:42:28.697Z,101225.22
2023-04-18T23:45:31.520Z,101217.28
2023-04-18T23:48:33.948Z,101227.81
2023-04-18T23:51:37.812Z,101226.00
2023-04-18T23:54:40.211Z,101219.78
2023-04-18T23:57:43.236Z,101218.88
